createdAt,value
2019-02-27T00:03:29.199Z,6.10
2019-02-27T00:18:34.497Z,6.00
2019-02-27T00:33:52.420Z,10.70
2019-02-27T00:48:59.358Z,11.57
2019-02-27T01:04:04.475Z,13.13
2019-02-27T01:19:09.824Z,12.60
2019-02-27T01:34:26.760Z,12.83
2019-02-27T01:49:31.816Z,12.37
2019-02-27T02:04:52.950Z,9.53
2019-02-27T02:20:00.212Z,10.40
2019-02-27T02:35:06.572Z,10.80
2019-02-27T02:50:17.407Z,11.07
2019-02-27T03:05:23.613Z,11.43
2019-02-27T03:20:32.049Z,15.53
2019-02-27T03:35:40.618Z,13.73
2019-02-27T03:51:06.417Z,17.70
2019-02-27T04:06:19.999Z,22.30
2019-02-27T04:21:24.935Z,26.83
2019-02-27T04:36:40.866Z,23.10
2019-02-27T04:51:48.060Z,24.70
2019-02-27T05:07:05.212Z,23.90
2019-02-27T05:22:10.812Z,23.33
2019-02-27T05:37:16.260Z,23.93
2019-02-27T05:52:21.270Z,35.27
2019-02-27T06:07:26.538Z,30.30
2019-02-27T06:22:44.238Z,25.77
2019-02-27T06:37:50.730Z,28.47
2019-02-27T06:52:57.033Z,33.97
2019-02-27T07:08:15.370Z,33.03
2019-02-27T07:23:32.405Z,34.87
2019-02-27T07:38:38.706Z,32.57
2019-02-27T07:53:44.339Z,26.07
2019-02-27T08:09:01.670Z,29.47
2019-02-27T08:24:19.821Z,23.03
2019-02-27T08:39:24.921Z,22.40
2019-02-27T08:54:32.160Z,22.47
2019-02-27T09:09:36.771Z,24.77
2019-02-27T09:24:43.791Z,26.20
2019-02-27T09:39:48.869Z,28.93
2019-02-27T09:54:54.880Z,33.07
2019-02-27T10:10:00.297Z,31.63
2019-02-27T10:25:08.524Z,26.30
2019-02-27T10:40:17.071Z,26.90
2019-02-27T10:55:23.420Z,29.10
2019-02-27T11:10:28.823Z,26.37
2019-02-27T11:25:34.420Z,27.20
2019-02-27T11:40:42.596Z,30.97
2019-02-27T11:55:47.295Z,36.73
2019-02-27T12:10:53.177Z,34.03
2019-02-27T12:25:59.899Z,40.33
2019-02-27T12:41:06.176Z,36.63
2019-02-27T12:56:30.377Z,38.27
2019-02-27T13:11:35.628Z,41.57
2019-02-27T13:26:41.004Z,41.50
2019-02-27T13:41:46.752Z,46.30
2019-02-27T13:56:51.599Z,43.97
2019-02-27T14:11:58.731Z,42.50
2019-02-27T14:27:03.495Z,36.73
2019-02-27T14:42:08.982Z,35.50
2019-02-27T14:57:16.054Z,27.47
2019-02-27T15:12:21.174Z,26.67
2019-02-27T15:27:26.248Z,26.13
2019-02-27T15:42:32.205Z,28.40
2019-02-27T15:57:38.779Z,28.87
2019-02-27T16:12:43.880Z,28.93
2019-02-27T16:27:49.259Z,29.77
2019-02-27T16:42:54.548Z,31.63
2019-02-27T16:58:01.734Z,32.17
2019-02-27T17:13:06.171Z,34.60
2019-02-27T17:28:12.115Z,36.30
2019-02-27T17:43:18.039Z,38.77
2019-02-27T17:58:23.224Z,39.13
2019-02-27T18:13:28.453Z,39.03
2019-02-27T18:28:34.862Z,38.30
2019-02-27T18:43:40.127Z,38.33
2019-02-27T18:58:45.922Z,38.67
2019-02-27T19:13:51.352Z,32.17
2019-02-27T19:28:59.325Z,31.03
2019-02-27T19:44:03.282Z,33.03
2019-02-27T19:59:08.835Z,33.03
2019-02-27T20:14:14.103Z,31.77
2019-02-27T20:29:20.397Z,31.60
2019-02-27T20:44:25.837Z,32.43
2019-02-27T20:59:30.981Z,33.83
2019-02-27T21:14:36.103Z,30.27
2019-02-27T21:29:43.368Z,31.03
2019-02-27T21:44:48.535Z,31.07
2019-02-27T21:59:55.184Z,30.67
2019-02-27T22:15:00.642Z,26.70
2019-02-27T22:30:09.004Z,32.77
2019-02-27T22:45:18.014Z,32.93
2019-02-27T23:00:37.039Z,27.43
2019-02-27T23:15:42.133Z,27.10
2019-02-27T23:30:48.015Z,22.43
2019-02-27T23:45:53.498Z,25.20
